Time;durP1;ratioP1;P1;durP2;ratioP2;P2;SDS_P1;SDS_P2;PMS_P1;PMS_P2;Temp;Humidity;BMP_temperature;BMP_pressure;BME280_temperature;BME280_humidity;BME280_pressure;Samples;Min_cycle;Max_cycle;Signal;HPM_P1;HPM_P2
2020/12/29 00:01:44;;;;;;;94.97;13.50;;;;;;;1.51;100.00;94909.28;5113596;28;20199;-68
2020/12/29 00:04:12;;;;;;;92.17;13.23;;;;;;;1.55;100.00;94902.75;5113430;28;20609;-68
2020/12/29 00:06:57;;;;;;;174.07;14.60;;;;;;;1.73;100.00;94906.59;5113873;28;20231;-69
2020/12/29 00:09:30;;;;;;;157.53;13.93;;;;;;;1.47;100.00;94914.66;5113973;28;20295;-68
2020/12/29 00:11:56;;;;;;;117.50;12.93;;;;;;;1.51;100.00;94920.94;5094869;28;20207;-69
2020/12/29 00:14:23;;;;;;;69.73;11.40;;;;;;;1.52;100.00;94924.44;5112876;28;20227;-68
2020/12/29 00:16:50;;;;;;;35.53;13.10;;;;;;;1.94;100.00;94907.00;5095013;28;20310;-69
2020/12/29 00:19:27;;;;;;;34.27;12.27;;;;;;;1.88;100.00;94875.06;5113394;28;20295;-68
2020/12/29 00:21:54;;;;;;;74.30;12.33;;;;;;;1.60;100.00;94875.34;5113364;28;20207;-69
2020/12/29 00:24:24;;;;;;;73.37;12.60;;;;;;;1.43;100.00;94870.34;5095471;28;20204;-68
2020/12/29 00:27:02;;;;;;;57.70;12.97;;;;;;;1.55;100.00;94864.75;5113554;28;20285;-68
2020/12/29 00:29:28;;;;;;;51.10;13.17;;;;;;;1.54;100.00;94859.66;5095550;28;20286;-70
2020/12/29 00:31:59;;;;;;;23.77;12.77;;;;;;;1.67;100.00;94870.03;5095898;28;20560;-69
2020/12/29 00:34:25;;;;;;;76.57;14.40;;;;;;;1.39;100.00;94869.47;5077786;28;20227;-69
2020/12/29 00:36:52;;;;;;;90.77;15.47;;;;;;;1.69;100.00;94877.81;5112851;28;20223;-69
2020/12/29 00:39:18;;;;;;;104.17;14.73;;;;;;;1.54;100.00;94881.41;5113241;28;20387;-69
2020/12/29 00:41:44;;;;;;;60.57;14.43;;;;;;;1.43;100.00;94886.63;5113083;28;20207;-69
2020/12/29 00:44:10;;;;;;;49.03;13.67;;;;;;;1.61;100.00;94890.47;5113261;28;20238;-69
2020/12/29 00:46:36;;;;;;;37.20;14.43;;;;;;;1.46;100.00;94885.91;5113225;28;20227;-69
2020/12/29 00:49:02;;;;;;;27.20;13.33;;;;;;;1.66;100.00;94879.31;5122532;28;20219;-70
2020/12/29 00:51:28;;;;;;;56.47;14.00;;;;;;;1.55;100.00;94883.75;5125067;28;20204;-69
2020/12/29 00:53:54;;;;;;;48.03;13.67;;;;;;;1.59;100.00;94872.94;5116420;28;20212;-70
2020/12/29 00:56:23;;;;;;;52.60;13.40;;;;;;;1.47;100.00;94864.97;5095152;28;20227;-70
2020/12/29 00:58:49;;;;;;;60.43;13.67;;;;;;;1.40;100.00;94862.13;5112591;28;20286;-70
2020/12/29 01:33:56;;;;;;;63.47;14.97;;;;;;;1.47;100.00;94884.78;5138065;27;20520;-68
2020/12/29 01:36:23;;;;;;;87.43;16.80;;;;;;;1.72;100.00;94879.78;5130327;27;20319;-69
2020/12/29 01:38:49;;;;;;;53.87;16.53;;;;;;;1.52;100.00;94895.34;5128836;28;20230;-69
2020/12/29 01:41:18;;;;;;;39.33;16.00;;;;;;;1.55;100.00;94889.19;5129940;27;20203;-68
2020/12/29 01:43:46;;;;;;;24.37;16.47;;;;;;;1.83;100.00;94900.59;5129577;27;20574;-68
2020/12/29 01:46:12;;;;;;;103.73;17.27;;;;;;;1.88;100.00;94905.72;5130083;27;20223;-68
2020/12/29 01:48:42;;;;;;;89.03;17.20;;;;;;;1.78;100.00;94900.91;5111894;28;20252;-68
2020/12/29 01:51:09;;;;;;;53.67;16.33;;;;;;;1.77;100.00;94899.31;5129981;27;20203;-68
2020/12/29 01:53:39;;;;;;;71.23;16.10;;;;;;;1.82;100.00;94882.72;5129532;27;20230;-68
2020/12/29 01:56:10;;;;;;;90.30;15.90;;;;;;;1.70;100.00;94906.53;5128359;28;20787;-68
2020/12/29 01:58:41;;;;;;;64.93;16.00;;;;;;;1.94;100.00;94914.38;5129822;27;20210;-68
2020/12/29 02:01:08;;;;;;;59.20;16.20;;;;;;;2.22;100.00;94917.59;5129699;27;20852;-68
2020/12/29 02:03:35;;;;;;;42.60;15.13;;;;;;;2.35;100.00;94927.16;5129093;27;20298;-68
2020/12/29 02:06:02;;;;;;;97.13;15.30;;;;;;;2.02;100.00;94927.75;5129553;27;20314;-68
2020/12/29 02:08:28;;;;;;;69.37;14.97;;;;;;;1.70;100.00;94928.28;5128178;28;20243;-68
2020/12/29 02:10:56;;;;;;;23.20;12.77;;;;;;;1.78;100.00;94944.38;5121313;27;20236;-68
2020/12/29 02:13:22;;;;;;;58.40;13.03;;;;;;;1.45;100.00;94976.69;5112741;28;20311;-68
2020/12/29 02:15:48;;;;;;;53.60;13.60;;;;;;;1.42;100.00;94976.63;5114044;28;20270;-68
2020/12/29 02:18:14;;;;;;;27.47;13.90;;;;;;;1.77;100.00;94980.84;5126247;28;20208;-69
2020/12/29 02:20:40;;;;;;;58.30;14.50;;;;;;;1.71;100.00;94990.44;5112319;28;20287;-69
2020/12/29 02:23:07;;;;;;;73.20;15.30;;;;;;;1.44;100.00;94999.56;5108451;28;20286;-68
2020/12/29 02:25:38;;;;;;;61.53;15.03;;;;;;;1.64;100.00;95001.13;5108536;28;20611;-68
2020/12/29 02:28:05;;;;;;;58.53;14.43;;;;;;;1.65;100.00;94989.16;5107627;28;20239;-68
2020/12/29 02:30:31;;;;;;;69.43;15.43;;;;;;;1.64;100.00;94998.41;5107507;28;20200;-68
2020/12/29 02:32:57;;;;;;;19.13;13.93;;;;;;;1.58;100.00;94997.16;5108295;28;20232;-69
2020/12/29 02:35:23;;;;;;;16.77;14.20;;;;;;;1.82;100.00;94996.06;5108466;28;20224;-69
2020/12/29 02:37:49;;;;;;;17.60;14.17;;;;;;;1.56;100.00;94988.56;5108194;28;20247;-69
2020/12/29 02:40:15;;;;;;;16.83;14.13;;;;;;;1.81;100.00;94994.50;5107323;28;20204;-69
2020/12/29 02:42:44;;;;;;;17.57;13.60;;;;;;;1.79;100.00;94994.84;5108359;28;20200;-68
2020/12/29 02:45:10;;;;;;;17.17;13.83;;;;;;;1.71;100.00;95000.50;5094316;28;20291;-69
2020/12/29 02:47:36;;;;;;;16.40;13.50;;;;;;;1.96;100.00;95001.78;5094947;28;20291;-69
2020/12/29 02:50:05;;;;;;;17.23;13.10;;;;;;;1.80;100.00;94999.16;5093393;28;20579;-69
2020/12/29 02:52:31;;;;;;;15.77;12.97;;;;;;;1.77;100.00;94999.84;5110264;28;20235;-69
2020/12/29 02:54:57;;;;;;;15.20;13.07;;;;;;;1.78;100.00;95004.16;5094592;28;20205;-68
2020/12/29 02:57:23;;;;;;;15.47;13.00;;;;;;;1.69;100.00;95009.03;5093192;28;20274;-69
2020/12/29 02:59:49;;;;;;;14.70;12.03;;;;;;;1.80;100.00;95015.47;5094767;28;20212;-68
2020/12/29 03:02:15;;;;;;;15.17;12.93;;;;;;;1.83;100.00;95011.22;5094510;28;20247;-68
2020/12/29 03:04:44;;;;;;;16.83;12.60;;;;;;;1.81;100.00;95011.59;5093963;28;20204;-68
2020/12/29 03:07:14;;;;;;;16.40;12.13;;;;;;;1.77;100.00;95018.13;5094442;28;20316;-68
2020/12/29 03:09:40;;;;;;;16.10;13.23;;;;;;;1.75;100.00;95018.44;5094441;28;20200;-69
2020/12/29 03:12:06;;;;;;;17.37;13.57;;;;;;;1.76;100.00;95022.75;5095008;28;20234;-68
2020/12/29 03:14:32;;;;;;;16.47;13.03;;;;;;;1.79;100.00;95019.31;5094175;28;20204;-68
2020/12/29 03:17:01;;;;;;;16.60;13.63;;;;;;;1.92;100.00;95012.59;5092693;28;20235;-69
2020/12/29 03:19:27;;;;;;;17.13;13.70;;;;;;;1.76;100.00;95020.03;5094042;28;20247;-69
2020/12/29 03:21:53;;;;;;;18.80;14.27;;;;;;;1.82;100.00;95025.97;5094082;28;20262;-68
2020/12/29 03:24:19;;;;;;;15.67;12.93;;;;;;;2.01;100.00;95018.59;5109542;28;20211;-68
2020/12/29 03:26:45;;;;;;;16.60;12.87;;;;;;;2.38;100.00;95026.25;5092750;28;20729;-68
2020/12/29 03:29:11;;;;;;;14.67;12.07;;;;;;;2.08;100.00;95015.22;5093921;28;20204;-68
2020/12/29 03:31:43;;;;;;;14.00;12.00;;;;;;;2.05;100.00;95022.16;5093847;28;20250;-68
2020/12/29 03:34:15;;;;;;;15.07;12.50;;;;;;;1.97;100.00;95015.00;5108835;28;20287;-68
2020/12/29 03:36:44;;;;;;;14.57;12.10;;;;;;;2.03;100.00;95001.91;5092732;28;20232;-68
2020/12/29 03:39:10;;;;;;;13.03;11.60;;;;;;;2.11;100.00;94997.41;5093477;28;20726;-68
2020/12/29 03:41:37;;;;;;;13.60;11.13;;;;;;;2.05;100.00;94981.38;5092451;28;20205;-68
2020/12/29 03:44:03;;;;;;;13.33;11.57;;;;;;;2.05;100.00;94986.81;5093185;28;20201;-69
2020/12/29 03:46:29;;;;;;;12.73;10.87;;;;;;;2.16;100.00;94978.06;5094030;28;20259;-68
2020/12/29 03:48:55;;;;;;;11.27;9.73;;;;;;;2.08;100.00;94980.66;5098001;28;20662;-68
2020/12/29 03:51:21;;;;;;;12.40;10.57;;;;;;;2.18;100.00;94976.56;5094170;28;20236;-68
2020/12/29 03:53:47;;;;;;;14.43;10.90;;;;;;;2.09;100.00;94981.44;5093100;28;20229;-68
2020/12/29 03:56:13;;;;;;;13.03;10.80;;;;;;;2.21;100.00;94992.16;5092523;28;20315;-69
2020/12/29 03:58:39;;;;;;;13.20;10.33;;;;;;;2.24;100.00;94996.88;5092354;28;20288;-68
2020/12/29 04:01:05;;;;;;;11.50;10.30;;;;;;;2.33;100.00;95002.09;5093146;28;20208;-69
2020/12/29 04:03:34;;;;;;;19.50;13.30;;;;;;;2.31;100.00;94996.22;5092879;28;20239;-69
2020/12/29 04:06:01;;;;;;;16.67;12.90;;;;;;;2.30;100.00;95005.53;5093277;28;20235;-68
2020/12/29 04:08:27;;;;;;;13.57;10.13;;;;;;;2.37;100.00;95022.00;5092949;28;20299;-68
2020/12/29 04:10:53;;;;;;;12.13;9.60;;;;;;;2.38;100.00;95018.09;5092937;28;20208;-69
2020/12/29 04:13:19;;;;;;;24.90;10.13;;;;;;;2.42;100.00;95018.97;5092003;28;20825;-70
2020/12/29 04:15:45;;;;;;;11.70;9.43;;;;;;;2.29;100.00;95015.63;5092960;28;20319;-69
2020/12/29 04:18:11;;;;;;;14.77;9.27;;;;;;;2.53;100.00;95019.94;5091807;28;20219;-70
2020/12/29 04:20:37;;;;;;;16.33;10.77;;;;;;;2.28;100.00;95018.72;5093169;28;20204;-70
2020/12/29 04:23:03;;;;;;;14.73;10.70;;;;;;;2.26;100.00;95021.00;5092442;28;20197;-69
2020/12/29 04:25:29;;;;;;;12.33;10.47;;;;;;;2.22;100.00;95012.78;5092707;28;20221;-69
2020/12/29 04:27:55;;;;;;;14.73;11.00;;;;;;;2.22;100.00;95025.59;5091657;28;20665;-69
2020/12/29 04:30:21;;;;;;;14.60;12.27;;;;;;;2.30;100.00;95017.19;5092670;28;20212;-69
2020/12/29 04:32:48;;;;;;;16.20;13.10;;;;;;;2.08;100.00;95040.47;5103200;28;20225;-69
2020/12/29 04:35:17;;;;;;;16.00;12.50;;;;;;;2.03;100.00;95029.91;5098999;28;20212;-69
2020/12/29 04:37:44;;;;;;;17.37;14.13;;;;;;;1.87;100.00;95039.28;5092610;28;20240;-69
2020/12/29 04:40:10;;;;;;;15.67;13.63;;;;;;;1.98;100.00;95040.28;5092564;28;20208;-69
2020/12/29 04:42:36;;;;;;;18.83;15.10;;;;;;;1.98;100.00;95038.34;5092252;28;20567;-71
2020/12/29 04:45:07;;;;;;;18.77;15.27;;;;;;;2.00;100.00;95048.88;5092455;28;20236;-69
2020/12/29 04:47:35;;;;;;;17.43;15.30;;;;;;;1.90;100.00;95060.28;5092511;28;20201;-69
2020/12/29 04:50:02;;;;;;;19.50;14.73;;;;;;;2.04;100.00;95058.66;5092558;28;20291;-69
2020/12/29 04:52:30;;;;;;;19.93;14.87;;;;;;;2.05;100.00;95054.81;5092524;28;20264;-69
2020/12/29 04:54:57;;;;;;;18.57;15.00;;;;;;;1.80;100.00;95064.38;5092081;28;20736;-69
2020/12/29 04:57:24;;;;;;;17.97;15.13;;;;;;;1.76;100.00;95058.09;5073965;28;20315;-69
2020/12/29 04:59:53;;;;;;;19.03;15.23;;;;;;;1.64;100.00;95071.03;5092476;28;20215;-69
2020/12/29 05:02:19;;;;;;;19.33;15.77;;;;;;;1.73;100.00;95083.22;5092220;28;20283;-69
2020/12/29 05:04:48;;;;;;;19.97;14.87;;;;;;;1.77;100.00;95086.81;5091914;28;20361;-69
2020/12/29 05:07:14;;;;;;;18.60;15.23;;;;;;;1.78;100.00;95095.78;5091791;28;20267;-68
2020/12/29 05:09:43;;;;;;;17.83;15.60;;;;;;;1.85;100.00;95107.59;5092013;28;20208;-69
2020/12/29 05:12:08;;;;;;;22.93;16.47;;;;;;;1.84;100.00;95114.16;5092896;28;20284;-69
2020/12/29 05:14:37;;;;;;;18.03;15.53;;;;;;;2.00;100.00;95111.41;5092145;28;20209;-69
2020/12/29 05:17:03;;;;;;;18.43;16.13;;;;;;;1.97;100.00;95123.00;5095986;28;20307;-69
2020/12/29 05:19:32;;;;;;;18.37;14.63;;;;;;;1.95;100.00;95120.59;5101204;28;20257;-71
2020/12/29 05:21:58;;;;;;;17.50;14.80;;;;;;;1.98;100.00;95151.75;5093792;28;20315;-69
2020/12/29 05:24:24;;;;;;;18.17;15.40;;;;;;;2.02;100.00;95150.69;5090040;28;20243;-69
2020/12/29 05:26:59;;;;;;;17.40;15.07;;;;;;;1.95;100.00;95147.78;5092047;28;20328;-69
2020/12/29 05:29:26;;;;;;;16.50;14.30;;;;;;;1.96;100.00;95160.25;5090739;28;20208;-68
2020/12/29 05:31:53;;;;;;;18.93;15.17;;;;;;;1.83;100.00;95172.38;5091747;28;20291;-68
2020/12/29 05:34:22;;;;;;;19.70;16.33;;;;;;;2.09;100.00;95169.06;5091558;28;20295;-68
2020/12/29 05:36:49;;;;;;;15.50;12.60;;;;;;;2.14;100.00;95173.44;5091768;28;20236;-68
2020/12/29 05:39:20;;;;;;;17.03;13.33;;;;;;;2.28;100.00;95171.03;5090545;28;20228;-68
2020/12/29 05:41:48;;;;;;;14.30;12.10;;;;;;;2.41;100.00;95170.50;5091839;28;20223;-69
2020/12/29 05:44:27;;;;;;;13.53;10.87;;;;;;;2.48;100.00;95165.22;5091235;28;20197;-69
2020/12/29 05:46:55;;;;;;;14.47;11.60;;;;;;;2.39;100.00;95150.28;5090437;28;20267;-69
2020/12/29 05:49:26;;;;;;;13.07;11.33;;;;;;;2.40;100.00;95136.31;5091547;28;20240;-69
2020/12/29 05:51:54;;;;;;;14.57;10.90;;;;;;;2.35;100.00;95114.03;5091884;28;20220;-69
2020/12/29 05:54:22;;;;;;;13.03;10.77;;;;;;;2.24;100.00;95121.22;5091457;28;20287;-68
2020/12/29 05:56:48;;;;;;;12.37;11.07;;;;;;;2.38;100.00;95122.28;5091744;28;20314;-69
2020/12/29 05:59:18;;;;;;;11.83;10.23;;;;;;;2.51;100.00;95125.63;5091505;28;20246;-70
2020/12/29 06:01:50;;;;;;;14.27;9.10;;;;;;;2.58;100.00;95131.19;5091903;28;20204;-69
2020/12/29 06:04:18;;;;;;;13.00;9.53;;;;;;;2.58;100.00;95131.19;5090001;28;20207;-69
2020/12/29 06:06:49;;;;;;;11.27;9.20;;;;;;;2.67;100.00;95129.84;5090434;28;20319;-69
2020/12/29 06:09:21;;;;;;;10.97;8.87;;;;;;;2.63;100.00;95133.63;5091680;28;20299;-70
2020/12/29 06:11:47;;;;;;;9.57;8.23;;;;;;;2.75;100.00;95128.81;5092198;28;20300;-69
2020/12/29 06:14:24;;;;;;;9.63;8.03;;;;;;;2.69;100.00;95126.75;5090987;28;20239;-69
2020/12/29 06:16:51;;;;;;;9.47;7.53;;;;;;;2.75;100.00;95136.19;5091225;28;20282;-69
2020/12/29 06:19:31;;;;;;;11.57;7.87;;;;;;;2.76;100.00;95140.47;5092495;28;20207;-68
2020/12/29 06:22:07;;;;;;;8.07;7.10;;;;;;;2.85;100.00;95141.84;5095396;28;20266;-68
2020/12/29 06:24:36;;;;;;;12.00;7.33;;;;;;;2.91;100.00;95150.50;5094652;28;20242;-69
2020/12/29 06:27:05;;;;;;;8.60;6.80;;;;;;;2.90;100.00;95159.81;5094665;28;20554;-68
2020/12/29 06:29:33;;;;;;;9.13;7.03;;;;;;;2.95;100.00;95167.69;5094849;28;20907;-68
2020/12/29 06:32:10;;;;;;;9.93;7.03;;;;;;;2.94;100.00;95156.00;5094775;28;20247;-68
2020/12/29 06:34:37;;;;;;;7.37;6.00;;;;;;;2.91;100.00;95153.22;5094219;28;20214;-69
2020/12/29 06:37:38;;;;;;;7.27;5.83;;;;;;;2.90;100.00;95166.03;5094521;28;20319;-68
2020/12/29 06:40:08;;;;;;;7.00;5.83;;;;;;;2.88;100.00;95167.56;5090546;28;20208;-71
2020/12/29 06:42:39;;;;;;;6.57;5.63;;;;;;;2.78;100.00;95168.13;5093897;28;20200;-70
2020/12/29 06:45:07;;;;;;;7.53;5.53;;;;;;;2.74;100.00;95167.28;5094328;28;20211;-70
2020/12/29 06:47:38;;;;;;;7.40;6.20;;;;;;;2.66;100.00;95181.91;5097396;28;20204;-70
2020/12/29 06:50:30;;;;;;;8.87;6.77;;;;;;;2.67;100.00;95189.72;5109439;28;20204;-69
2020/12/29 06:53:01;;;;;;;12.37;7.30;;;;;;;2.63;100.00;95196.22;5094678;28;20227;-68
2020/12/29 06:55:36;;;;;;;13.60;7.23;;;;;;;2.68;100.00;95206.84;5093391;28;20315;-68
2020/12/29 06:58:03;;;;;;;8.33;7.10;;;;;;;2.64;100.00;95205.97;5094320;28;20203;-68
2020/12/29 07:00:30;;;;;;;8.63;7.17;;;;;;;2.74;100.00;95208.09;5094186;28;20240;-69
2020/12/29 07:02:56;;;;;;;14.83;7.17;;;;;;;2.70;100.00;95212.72;5094032;28;20284;-68
2020/12/29 07:05:24;;;;;;;9.90;6.77;;;;;;;2.64;100.00;95230.47;5093961;28;20319;-69
2020/12/29 07:07:53;;;;;;;8.53;6.67;;;;;;;2.63;100.00;95218.78;5093111;28;20720;-69
2020/12/29 07:10:20;;;;;;;8.13;6.70;;;;;;;2.54;100.00;95222.84;5095062;28;20228;-69
2020/12/29 07:12:50;;;;;;;10.10;7.00;;;;;;;2.65;100.00;95243.72;5093879;28;20418;-69
2020/12/29 07:15:20;;;;;;;11.40;6.97;;;;;;;2.68;100.00;95239.50;5110059;28;20209;-69
2020/12/29 07:18:22;;;;;;;9.80;7.90;;;;;;;2.53;100.00;95245.78;5094114;28;20254;-68
2020/12/29 07:20:51;;;;;;;10.20;8.07;;;;;;;2.55;100.00;95251.66;5077242;28;20723;-69
2020/12/29 07:23:34;;;;;;;8.83;7.57;;;;;;;2.65;100.00;95256.53;5094398;28;20197;-68
2020/12/29 07:26:02;;;;;;;9.60;7.90;;;;;;;2.54;100.00;95266.41;5093969;28;20311;-68
2020/12/29 07:28:29;;;;;;;8.93;7.53;;;;;;;2.58;100.00;95262.63;5093181;28;20331;-67
2020/12/29 07:30:56;;;;;;;9.57;8.00;;;;;;;2.55;100.00;95266.06;5112163;28;20290;-69
2020/12/29 07:33:24;;;;;;;8.70;7.70;;;;;;;2.68;100.00;95261.28;5118359;28;20274;-69
2020/12/29 07:35:50;;;;;;;11.43;8.10;;;;;;;2.61;100.00;95269.28;5126611;28;20584;-69
2020/12/29 07:38:20;;;;;;;9.63;7.97;;;;;;;2.59;100.00;95280.50;5112300;28;20358;-68
2020/12/29 07:40:46;;;;;;;9.07;7.33;;;;;;;2.69;100.00;95273.72;5111885;28;20756;-68
2020/12/29 07:43:13;;;;;;;14.73;7.17;;;;;;;2.70;100.00;95281.53;5112585;28;20683;-68
2020/12/29 07:45:39;;;;;;;9.80;7.57;;;;;;;2.67;100.00;95297.78;5113046;28;20254;-68
2020/12/29 07:48:07;;;;;;;8.53;7.07;;;;;;;2.64;100.00;95287.63;5110331;28;20287;-68
2020/12/29 07:50:35;;;;;;;8.37;7.00;;;;;;;2.88;100.00;95303.69;5110906;28;20207;-69
2020/12/29 07:53:07;;;;;;;9.60;7.23;;;;;;;2.79;100.00;95303.88;5111338;28;20255;-69
2020/12/29 07:55:35;;;;;;;8.47;6.77;;;;;;;2.91;100.00;95311.16;5111936;28;20676;-68
2020/12/29 07:58:05;;;;;;;8.57;7.13;;;;;;;2.87;100.00;95307.56;5113170;28;20208;-68
2020/12/29 08:00:36;;;;;;;11.87;6.77;;;;;;;2.78;100.00;95304.25;5111799;28;20203;-68
2020/12/29 08:03:04;;;;;;;9.60;7.03;;;;;;;2.68;100.00;95305.59;5112745;28;20282;-68
2020/12/29 08:05:31;;;;;;;8.10;7.23;;;;;;;2.57;100.00;95317.41;5112677;28;20745;-68
2020/12/29 08:08:03;;;;;;;8.57;7.23;;;;;;;2.57;100.00;95325.56;5112690;28;20207;-69
2020/12/29 08:10:36;;;;;;;10.60;7.87;;;;;;;2.76;100.00;95312.78;5108045;28;20196;-69
2020/12/29 08:13:07;;;;;;;10.67;8.10;;;;;;;2.63;100.00;95324.94;5092682;28;20312;-69
2020/12/29 08:15:36;;;;;;;10.17;7.73;;;;;;;2.61;100.00;95326.44;5092946;28;20289;-69
2020/12/29 08:18:06;;;;;;;10.63;8.30;;;;;;;2.85;100.00;95326.19;5095791;28;20272;-68
2020/12/29 08:20:33;;;;;;;9.60;7.93;;;;;;;2.85;100.00;95321.53;5103808;28;20215;-68
2020/12/29 08:23:04;;;;;;;11.23;8.53;;;;;;;2.76;100.00;95328.31;5095847;28;20201;-68
2020/12/29 08:25:32;;;;;;;10.17;8.10;;;;;;;2.92;100.00;95331.78;5092023;28;20224;-68
2020/12/29 08:28:01;;;;;;;12.07;8.90;;;;;;;3.01;100.00;95335.09;5102942;28;20286;-69
2020/12/29 08:30:28;;;;;;;9.83;8.00;;;;;;;3.01;100.00;95330.41;5112047;28;20298;-68
2020/12/29 08:33:01;;;;;;;11.00;8.73;;;;;;;3.57;100.00;95338.94;5110891;28;20701;-68
2020/12/29 08:35:31;;;;;;;9.00;7.40;;;;;;;3.33;100.00;95347.41;5111722;28;20315;-67
2020/12/29 08:38:31;;;;;;;10.10;7.63;;;;;;;3.41;100.00;95346.44;5112047;28;20299;-68
2020/12/29 08:41:10;;;;;;;8.03;7.00;;;;;;;3.43;100.00;95346.81;5111849;28;20200;-67
2020/12/29 08:43:40;;;;;;;9.60;7.90;;;;;;;3.25;100.00;95351.13;5110929;28;20196;-67
2020/12/29 08:46:08;;;;;;;8.87;7.23;;;;;;;3.13;100.00;95345.06;5111774;28;20303;-67
2020/12/29 08:48:34;;;;;;;9.13;7.10;;;;;;;3.20;100.00;95369.72;5111977;28;20215;-68
2020/12/29 08:51:17;;;;;;;9.30;7.40;;;;;;;3.23;100.00;95377.19;5111926;28;20207;-69
2020/12/29 08:53:43;;;;;;;9.50;7.70;;;;;;;3.18;100.00;95377.44;5111866;28;20255;-68
2020/12/29 08:56:26;;;;;;;9.93;7.73;;;;;;;3.27;100.00;95389.72;5112137;28;20224;-68
2020/12/29 08:58:53;;;;;;;11.00;8.33;;;;;;;3.50;100.00;95389.81;5112082;28;20284;-68
2020/12/29 09:01:31;;;;;;;10.67;8.37;;;;;;;3.75;100.00;95402.78;5110581;28;20203;-69
2020/12/29 09:04:15;;;;;;;10.03;7.83;;;;;;;3.66;100.00;95406.88;5110190;28;20200;-68
2020/12/29 09:06:41;;;;;;;14.57;7.80;;;;;;;3.61;100.00;95405.19;5111847;28;20424;-68
2020/12/29 09:09:08;;;;;;;10.00;8.27;;;;;;;3.80;100.00;95410.66;5111714;28;20843;-68
2020/12/29 09:11:45;;;;;;;11.87;8.30;;;;;;;3.93;100.00;95412.06;5096293;28;20708;-67
2020/12/29 09:14:11;;;;;;;10.40;7.93;;;;;;;4.78;100.00;95405.34;5091284;28;20260;-69
2020/12/29 09:16:37;;;;;;;12.83;8.30;;;;;;;5.24;100.00;95414.22;5092631;28;20252;-69
2020/12/29 09:19:13;;;;;;;9.30;7.60;;;;;;;5.46;100.00;95411.38;5111610;28;20211;-69
2020/12/29 09:21:41;;;;;;;8.23;6.90;;;;;;;4.73;100.00;95408.34;5111419;28;20237;-68
2020/12/29 09:24:07;;;;;;;9.03;6.80;;;;;;;4.35;100.00;95419.44;5109523;28;20223;-67
2020/12/29 09:26:47;;;;;;;8.57;7.30;;;;;;;4.10;100.00;95424.47;5111529;28;20249;-67
2020/12/29 09:29:18;;;;;;;8.77;7.17;;;;;;;4.46;100.00;95428.59;5110280;28;20242;-68
2020/12/29 09:31:55;;;;;;;8.73;6.90;;;;;;;5.25;100.00;95432.97;5109805;28;20675;-68
2020/12/29 09:34:21;;;;;;;8.53;6.90;;;;;;;5.85;100.00;95431.84;5110119;28;20311;-69
2020/12/29 09:36:47;;;;;;;10.13;6.60;;;;;;;6.37;100.00;95413.63;5111087;28;20256;-68
2020/12/29 09:39:13;;;;;;;7.03;6.17;;;;;;;6.59;100.00;95415.34;5110968;28;20258;-68
2020/12/29 09:41:40;;;;;;;7.70;5.80;;;;;;;7.05;100.00;95417.31;5111161;28;20238;-68
2020/12/29 09:44:06;;;;;;;6.90;5.40;;;;;;;6.02;100.00;95425.75;5110733;28;20223;-68
2020/12/29 09:46:39;;;;;;;7.13;5.50;;;;;;;5.62;100.00;95425.63;5111270;28;20272;-67
2020/12/29 09:49:05;;;;;;;8.50;5.33;;;;;;;6.37;100.00;95430.03;5120284;28;20339;-67
2020/12/29 09:51:35;;;;;;;9.90;5.73;;;;;;;6.58;100.00;95430.22;5125863;28;20203;-68
2020/12/29 09:54:01;;;;;;;7.00;4.13;;;;;;;7.46;100.00;95428.94;5111902;28;20321;-68
2020/12/29 09:56:30;;;;;;;4.10;2.47;;;;;;;7.21;100.00;95427.97;5113623;28;20235;-67
2020/12/29 09:58:56;;;;;;;4.33;2.80;;;;;;;7.50;100.00;95432.47;5115264;28;20207;-67
2020/12/29 10:01:22;;;;;;;2.00;1.33;;;;;;;7.34;100.00;95425.72;5114737;28;20618;-68
2020/12/29 10:03:48;;;;;;;4.90;1.20;;;;;;;7.14;100.00;95431.47;5113686;28;20200;-68
2020/12/29 10:06:15;;;;;;;2.43;0.90;;;;;;;7.73;100.00;95424.78;5114725;28;20224;-68
2020/12/29 10:08:41;;;;;;;3.00;1.10;;;;;;;8.32;100.00;95426.16;5114819;28;20747;-68
2020/12/29 10:11:10;;;;;;;2.03;1.00;;;;;;;8.80;100.00;95415.63;5104620;28;20272;-68
2020/12/29 10:13:36;;;;;;;2.67;0.93;;;;;;;8.16;100.00;95423.75;5094073;28;20788;-68
2020/12/29 10:16:02;;;;;;;2.70;0.70;;;;;;;8.32;100.00;95428.13;5094535;28;20265;-68
2020/12/29 10:18:29;;;;;;;2.90;0.77;;;;;;;7.72;100.00;95442.38;5094828;28;20238;-68
2020/12/29 10:20:56;;;;;;;3.13;1.00;;;;;;;7.55;100.00;95448.59;5093306;28;20291;-69
2020/12/29 10:23:25;;;;;;;1.57;1.00;;;;;;;7.34;100.00;95448.44;5094905;28;20710;-70
2020/12/29 10:25:54;;;;;;;2.53;1.10;;;;;;;7.40;100.00;95438.69;5114626;28;20319;-69
2020/12/29 10:28:20;;;;;;;2.80;1.00;;;;;;;7.51;100.00;95449.72;5114575;28;20303;-68
2020/12/29 10:30:48;;;;;;;2.77;1.30;;;;;;;7.27;100.00;95453.09;5114212;28;20286;-68
2020/12/29 10:33:14;;;;;;;2.90;1.10;;;;;;;7.69;100.00;95456.91;5119977;28;20228;-68
2020/12/29 10:35:43;;;;;;;2.13;0.90;;;;;;;8.37;100.00;95456.03;5138951;28;20219;-69
2020/12/29 10:38:11;;;;;;;3.10;1.10;;;;;;;9.02;100.00;95451.00;5116324;28;20278;-68
2020/12/29 10:40:39;;;;;;;1.63;0.73;;;;;;;9.10;100.00;95454.53;5113865;28;20212;-66
2020/12/29 10:43:05;;;;;;;2.33;1.17;;;;;;;8.64;100.00;95461.97;5112980;28;20637;-69
2020/12/29 10:45:32;;;;;;;2.80;1.10;;;;;;;8.48;100.00;95470.56;5114098;28;20223;-73
2020/12/29 10:47:58;;;;;;;1.77;0.90;;;;;;;8.68;100.00;95471.81;5114162;28;20684;-69
2020/12/29 10:50:27;;;;;;;1.70;0.90;;;;;;;8.92;100.00;95468.28;5114028;28;20242;-69
2020/12/29 10:52:53;;;;;;;2.47;1.20;;;;;;;9.16;100.00;95483.22;5113237;28;20234;-71
2020/12/29 10:55:19;;;;;;;2.47;1.23;;;;;;;9.15;100.00;95476.94;5112530;28;20294;-74
2020/12/29 10:57:45;;;;;;;3.13;1.33;;;;;;;9.25;100.00;95480.88;5112770;28;20302;-66
2020/12/29 11:00:11;;;;;;;3.23;1.00;;;;;;;9.41;100.00;95481.25;5112345;28;20208;-67
2020/12/29 11:02:39;;;;;;;2.30;1.13;;;;;;;9.76;100.00;95481.19;5114804;28;20227;-67
2020/12/29 11:05:05;;;;;;;2.53;1.00;;;;;;;9.27;100.00;95483.22;5112912;28;20204;-67
2020/12/29 11:07:31;;;;;;;1.67;0.93;;;;;;;9.02;100.00;95486.75;5114255;28;20694;-67
2020/12/29 11:10:03;;;;;;;1.47;0.73;;;;;;;8.67;100.00;95508.69;5114145;27;20242;-68
2020/12/29 11:12:29;;;;;;;2.27;0.67;;;;;;;8.34;100.00;95495.25;5101968;28;20235;-66
2020/12/29 11:14:55;;;;;;;3.70;0.90;;;;;;;8.09;100.00;95486.88;5112544;28;20204;-66
2020/12/29 11:17:22;;;;;;;2.50;0.60;;;;;;;8.16;100.00;95483.38;5117765;28;20227;-66
2020/12/29 11:19:48;;;;;;;2.03;0.83;;;;;;;7.90;100.00;95498.16;5128832;28;20204;-67
2020/12/29 11:22:17;;;;;;;2.93;0.93;;;;;;;7.99;100.00;95489.59;5115715;28;20204;-67
2020/12/29 11:24:43;;;;;;;4.80;1.10;;;;;;;8.12;100.00;95496.31;5111329;28;20286;-66
2020/12/29 11:27:09;;;;;;;1.80;0.70;;;;;;;8.13;100.00;95498.69;5113478;28;20310;-66
2020/12/29 11:29:35;;;;;;;4.27;0.93;;;;;;;8.10;100.00;95501.41;5113325;28;20229;-66
2020/12/29 11:32:01;;;;;;;1.30;0.77;;;;;;;8.32;100.00;95494.84;5112749;28;20696;-67
2020/12/29 11:34:27;;;;;;;1.53;0.83;;;;;;;8.17;100.00;95495.94;5112087;28;20292;-67
2020/12/29 11:36:53;;;;;;;2.53;0.97;;;;;;;8.14;100.00;95503.00;5112990;28;20259;-66
2020/12/29 11:39:22;;;;;;;3.30;1.90;;;;;;;8.10;100.00;95506.91;5112763;28;20204;-68
2020/12/29 11:41:54;;;;;;;2.93;0.93;;;;;;;8.22;100.00;95517.53;5111239;28;20204;-68
2020/12/29 11:44:21;;;;;;;2.40;1.00;;;;;;;8.21;100.00;95514.00;5107576;28;20641;-67
2020/12/29 11:46:47;;;;;;;2.33;1.40;;;;;;;8.23;100.00;95517.16;5112449;28;20307;-68
2020/12/29 11:49:13;;;;;;;2.10;1.17;;;;;;;8.66;100.00;95518.13;5112529;28;20645;-67
2020/12/29 11:51:45;;;;;;;2.03;0.80;;;;;;;8.41;100.00;95519.22;5112657;28;20250;-67
2020/12/29 11:54:11;;;;;;;2.73;1.20;;;;;;;8.47;100.00;95518.44;5111829;28;20783;-67
2020/12/29 11:56:37;;;;;;;2.07;0.80;;;;;;;8.58;100.00;95524.75;5112795;28;20232;-67
2020/12/29 11:59:03;;;;;;;2.87;0.93;;;;;;;8.82;100.00;95528.75;5112418;28;20204;-67
2020/12/29 12:01:29;;;;;;;1.03;0.77;;;;;;;8.74;100.00;95527.19;5112487;28;20803;-67
2020/12/29 12:03:55;;;;;;;3.60;1.10;;;;;;;8.67;100.00;95544.44;5112002;28;20199;-68